Paintersville, California
Current Conditions -  °F | °C
As of 4:23 AM on Thursday 18 Dec 2014 (Local Time) from KSAC Reporting Station
Overcast Overcast  
Wind Chill: 52°   Ceiling: 1400
Heat Index: 52°   Visibility: 10mi
Dew Point: 48°   Wind: 3mph
Humidity: 88%   Direction: 140°SE
Pressure: 30.11"   Gusts: NA
Location:  38.3168°N, 121.532°W
Report Text: KSAC 181223Z 14003KT 10SM BKN014 OVC060 11/09 A3011 RMK AO2
Loading
Personal Weather Stations






























Interactive Weather Map New forecast layout! Learn more

10-Day Weather Forecast

Advertisements
Track Severe Weather on mobile